Time;durP1;ratioP1;P1;durP2;ratioP2;P2;SDS_P1;SDS_P2;PMS_P1;PMS_P2;Temp;Humidity;BMP_temperature;BMP_pressure;BME280_temperature;BME280_humidity;BME280_pressure;Samples;Min_cycle;Max_cycle;Signal;HPM_P1;HPM_P2
2021/08/22 00:02:06;;;;;;;5.70;4.88;;;;;;;;;;5003037;28;20195;-56
2021/08/22 00:04:32;;;;;;;5.93;5.43;;;;;;;;;;4982591;28;20180;-56
2021/08/22 00:06:57;;;;;;;6.75;5.07;;;;;;;;;;5000924;28;20223;-56
2021/08/22 00:09:23;;;;;;;5.38;4.88;;;;;;;;;;5007900;28;20234;-56
2021/08/22 00:11:48;;;;;;;5.28;4.55;;;;;;;;;;5000987;28;20215;-56
2021/08/22 00:14:13;;;;;;;7.15;5.10;;;;;;;;;;5003151;28;20657;-56
2021/08/22 00:16:38;;;;;;;6.38;5.20;;;;;;;;;;5000093;28;20184;-56
2021/08/22 00:19:03;;;;;;;6.40;5.20;;;;;;;;;;5002674;28;20176;-56
2021/08/22 00:21:29;;;;;;;5.60;5.00;;;;;;;;;;5003890;28;20184;-56
2021/08/22 00:23:54;;;;;;;6.28;5.68;;;;;;;;;;5024525;28;20238;-55
2021/08/22 00:26:19;;;;;;;6.70;5.40;;;;;;;;;;5003868;28;20648;-56
2021/08/22 00:28:44;;;;;;;6.25;5.65;;;;;;;;;;4998863;28;20210;-56
2021/08/22 00:31:09;;;;;;;6.95;6.25;;;;;;;;;;5002397;28;20288;-56
2021/08/22 00:33:35;;;;;;;6.78;5.95;;;;;;;;;;5001123;28;20254;-56
2021/08/22 00:36:00;;;;;;;7.03;6.07;;;;;;;;;;5015600;28;20188;-56
2021/08/22 00:38:25;;;;;;;6.07;5.45;;;;;;;;;;4994860;28;20222;-57
2021/08/22 00:40:50;;;;;;;7.30;6.60;;;;;;;;;;4993942;28;20287;-56
2021/08/22 00:43:16;;;;;;;8.07;6.13;;;;;;;;;;5013948;28;20188;-55
2021/08/22 00:45:42;;;;;;;6.55;5.95;;;;;;;;;;4999497;28;20281;-56
2021/08/22 00:48:07;;;;;;;7.70;6.10;;;;;;;;;;5000508;28;20226;-57
2021/08/22 00:50:33;;;;;;;6.70;6.00;;;;;;;;;;4996017;28;20598;-56
2021/08/22 00:52:59;;;;;;;7.82;6.07;;;;;;;;;;4998857;28;20307;-56
2021/08/22 00:55:24;;;;;;;9.20;6.55;;;;;;;;;;5005844;28;20183;-57
2021/08/22 00:57:50;;;;;;;8.73;5.80;;;;;;;;;;5004273;28;20187;-56
2021/08/22 01:00:15;;;;;;;6.63;5.82;;;;;;;;;;4994429;28;20846;-56
2021/08/22 01:02:52;;;;;;;6.15;5.55;;;;;;;;;;4998312;28;20199;-56
2021/08/22 01:05:36;;;;;;;6.88;5.93;;;;;;;;;;4996618;28;20191;-56
2021/08/22 01:08:07;;;;;;;7.45;6.65;;;;;;;;;;5012636;28;20199;-56
2021/08/22 01:10:33;;;;;;;6.85;6.15;;;;;;;;;;5010391;28;20765;-55
2021/08/22 01:13:01;;;;;;;7.13;6.32;;;;;;;;;;5004292;28;20651;-55
2021/08/22 01:15:27;;;;;;;7.57;6.32;;;;;;;;;;5007258;28;20176;-56
2021/08/22 01:17:52;;;;;;;8.27;7.03;;;;;;;;;;5006143;28;20262;-55
2021/08/22 01:20:17;;;;;;;7.88;7.07;;;;;;;;;;4997870;28;20617;-56
2021/08/22 01:22:43;;;;;;;7.05;6.18;;;;;;;;;;5001678;28;20175;-56
2021/08/22 01:25:09;;;;;;;9.13;6.55;;;;;;;;;;5009343;28;20473;-56
2021/08/22 01:27:36;;;;;;;7.50;6.80;;;;;;;;;;5000461;28;20179;-56
2021/08/22 01:30:04;;;;;;;7.57;6.70;;;;;;;;;;5002534;28;20433;-56
2021/08/22 01:32:34;;;;;;;7.40;6.70;;;;;;;;;;4998662;28;20211;-56
2021/08/22 01:34:59;;;;;;;7.77;6.60;;;;;;;;;;5011986;28;20163;-56
2021/08/22 01:37:24;;;;;;;7.55;6.47;;;;;;;;;;5012494;28;20173;-56
2021/08/22 01:39:49;;;;;;;8.17;7.37;;;;;;;;;;5013013;28;20777;-56
2021/08/22 01:42:14;;;;;;;8.23;7.37;;;;;;;;;;5005563;28;20178;-56
2021/08/22 01:44:43;;;;;;;8.17;7.37;;;;;;;;;;5023498;28;20704;-56
2021/08/22 01:47:09;;;;;;;9.20;7.50;;;;;;;;;;5008698;28;20248;-55
2021/08/22 01:49:35;;;;;;;10.03;8.30;;;;;;;;;;4994167;28;20219;-56
2021/08/22 01:52:00;;;;;;;8.53;6.80;;;;;;;;;;4995234;28;20187;-56
2021/08/22 01:54:26;;;;;;;8.83;7.40;;;;;;;;;;5022589;28;20174;-56
2021/08/22 01:56:51;;;;;;;8.77;7.27;;;;;;;;;;5016420;28;20179;-56
2021/08/22 01:59:16;;;;;;;10.07;7.53;;;;;;;;;;5007450;28;20194;-56
2021/08/22 02:01:41;;;;;;;8.17;7.23;;;;;;;;;;4992398;28;20569;-56
2021/08/22 02:04:16;;;;;;;7.53;6.73;;;;;;;;;;4998224;28;20233;-56
2021/08/22 02:06:49;;;;;;;7.03;6.33;;;;;;;;;;4998945;28;20187;-56
2021/08/22 02:09:17;;;;;;;7.40;6.70;;;;;;;;;;5003659;28;20210;-56
2021/08/22 02:11:44;;;;;;;8.87;7.00;;;;;;;;;;5003922;28;20835;-56
2021/08/22 02:14:12;;;;;;;7.57;6.53;;;;;;;;;;5027526;28;20233;-56
2021/08/22 02:16:38;;;;;;;9.23;7.30;;;;;;;;;;5003424;28;20175;-56
2021/08/22 02:19:03;;;;;;;7.83;7.03;;;;;;;;;;4999667;28;20184;-56
2021/08/22 02:21:29;;;;;;;9.07;7.43;;;;;;;;;;4991473;28;20211;-56
2021/08/22 02:23:56;;;;;;;9.30;7.73;;;;;;;;;;5018943;28;20191;-56
2021/08/22 02:26:22;;;;;;;9.17;7.27;;;;;;;;;;5019849;28;20180;-56
2021/08/22 02:29:06;;;;;;;8.70;7.83;;;;;;;;;;5011218;28;20202;-55
2021/08/22 02:31:31;;;;;;;9.70;7.47;;;;;;;;;;5006845;28;20190;-55
2021/08/22 02:33:57;;;;;;;8.07;7.27;;;;;;;;;;4996127;28;20188;-56
2021/08/22 02:36:22;;;;;;;9.20;7.67;;;;;;;;;;5001852;28;20180;-55
2021/08/22 02:38:48;;;;;;;8.87;7.97;;;;;;;;;;4995910;28;20652;-56
2021/08/22 02:41:13;;;;;;;8.57;7.60;;;;;;;;;;5000930;28;20207;-55
2021/08/22 02:43:38;;;;;;;8.93;8.02;;;;;;;;;;5001431;28;20549;-56
2021/08/22 02:46:04;;;;;;;9.03;8.13;;;;;;;;;;5001315;28;20188;-55
2021/08/22 02:48:29;;;;;;;11.23;8.00;;;;;;;;;;4992904;28;20565;-55
2021/08/22 02:50:54;;;;;;;9.37;8.40;;;;;;;;;;4990284;28;20188;-56
2021/08/22 02:53:19;;;;;;;11.20;9.17;;;;;;;;;;4999585;28;20203;-56
2021/08/22 02:55:44;;;;;;;9.47;8.47;;;;;;;;;;5020844;28;20182;-57
2021/08/22 02:58:09;;;;;;;9.83;8.23;;;;;;;;;;5002009;28;20178;-56
2021/08/22 03:00:35;;;;;;;10.57;9.50;;;;;;;;;;5006023;28;20207;-57
2021/08/22 03:03:00;;;;;;;11.23;8.47;;;;;;;;;;4997678;28;20199;-56
2021/08/22 03:05:25;;;;;;;10.03;8.90;;;;;;;;;;4995105;28;20191;-56
2021/08/22 03:07:50;;;;;;;10.53;8.63;;;;;;;;;;4996359;28;20195;-57
2021/08/22 03:10:15;;;;;;;9.50;8.60;;;;;;;;;;5009071;28;20206;-56
2021/08/22 03:12:41;;;;;;;12.87;9.00;;;;;;;;;;5003418;28;20203;-56
2021/08/22 03:15:07;;;;;;;9.40;8.43;;;;;;;;;;5022880;28;20190;-56
2021/08/22 03:17:33;;;;;;;10.30;9.20;;;;;;;;;;5000083;28;20183;-56
2021/08/22 03:20:02;;;;;;;13.03;8.33;;;;;;;;;;4992670;28;20202;-56
2021/08/22 03:22:27;;;;;;;11.10;8.47;;;;;;;;;;4998160;28;20187;-57
2021/08/22 03:24:52;;;;;;;10.07;9.07;;;;;;;;;;5002741;28;20231;-56
2021/08/22 03:27:17;;;;;;;11.23;9.37;;;;;;;;;;4998192;28;20215;-56
2021/08/22 03:29:42;;;;;;;10.87;8.33;;;;;;;;;;4993363;28;20216;-56
2021/08/22 03:32:08;;;;;;;9.93;8.77;;;;;;;;;;5000456;28;20180;-56
2021/08/22 03:34:33;;;;;;;9.70;8.67;;;;;;;;;;4990208;28;20172;-55
2021/08/22 03:36:58;;;;;;;10.03;8.87;;;;;;;;;;5003075;28;20180;-57
2021/08/22 03:39:23;;;;;;;10.60;8.77;;;;;;;;;;5017604;28;20642;-56
2021/08/22 03:41:49;;;;;;;9.77;7.97;;;;;;;;;;5008398;28;20195;-56
2021/08/22 03:44:14;;;;;;;9.93;8.93;;;;;;;;;;5011908;28;20178;-56
2021/08/22 03:46:39;;;;;;;10.63;8.37;;;;;;;;;;5002758;28;20216;-56
2021/08/22 03:49:04;;;;;;;9.23;7.68;;;;;;;;;;4989764;28;20886;-55
2021/08/22 03:51:29;;;;;;;8.83;7.93;;;;;;;;;;5003987;28;20287;-56
2021/08/22 03:53:55;;;;;;;7.80;6.80;;;;;;;;;;5014168;28;20674;-55
2021/08/22 03:56:20;;;;;;;7.73;5.77;;;;;;;;;;5015848;28;20191;-55
2021/08/22 03:58:45;;;;;;;14.07;8.90;;;;;;;;;;5007186;28;20269;-56
2021/08/22 04:01:10;;;;;;;9.37;7.10;;;;;;;;;;5014957;28;20257;-56
2021/08/22 04:03:40;;;;;;;10.10;9.10;;;;;;;;;;5001540;28;20436;-56
2021/08/22 04:06:05;;;;;;;7.07;5.97;;;;;;;;;;4990210;28;20236;-56
2021/08/22 04:08:31;;;;;;;8.93;8.00;;;;;;;;;;4994611;28;20196;-56
2021/08/22 04:10:57;;;;;;;9.63;8.17;;;;;;;;;;5011215;28;20198;-56
2021/08/22 04:13:22;;;;;;;9.30;8.17;;;;;;;;;;5026360;28;20177;-56
2021/08/22 04:15:47;;;;;;;10.53;9.53;;;;;;;;;;5023396;28;20290;-56
2021/08/22 04:18:13;;;;;;;10.67;9.33;;;;;;;;;;4995744;28;20181;-57
2021/08/22 04:20:39;;;;;;;10.10;9.10;;;;;;;;;;5006765;28;20191;-56
2021/08/22 04:23:04;;;;;;;9.83;8.83;;;;;;;;;;5001469;28;20194;-56
2021/08/22 04:25:29;;;;;;;11.80;8.47;;;;;;;;;;5008876;28;20180;-56
2021/08/22 04:27:54;;;;;;;10.83;9.07;;;;;;;;;;4999011;28;20275;-56
2021/08/22 04:30:20;;;;;;;11.97;9.53;;;;;;;;;;5012246;28;20190;-55
2021/08/22 04:32:45;;;;;;;9.67;8.67;;;;;;;;;;5008677;28;20188;-56
2021/08/22 04:35:10;;;;;;;11.10;8.70;;;;;;;;;;5000766;28;20532;-56
2021/08/22 04:37:36;;;;;;;10.23;8.80;;;;;;;;;;5014793;28;20211;-55
2021/08/22 04:40:01;;;;;;;10.27;8.83;;;;;;;;;;4996760;28;20702;-56
2021/08/22 04:42:26;;;;;;;9.03;8.13;;;;;;;;;;5006212;28;20184;-56
2021/08/22 04:44:51;;;;;;;8.93;7.97;;;;;;;;;;5016361;28;20277;-56
2021/08/22 04:47:17;;;;;;;10.53;8.80;;;;;;;;;;5008401;28;20229;-56
2021/08/22 04:49:42;;;;;;;8.13;6.10;;;;;;;;;;5001892;28;20226;-56
2021/08/22 04:52:07;;;;;;;8.83;7.87;;;;;;;;;;5004237;28;20179;-56
2021/08/22 04:54:32;;;;;;;9.00;7.80;;;;;;;;;;5010524;28;20175;-56
2021/08/22 04:56:57;;;;;;;9.40;8.40;;;;;;;;;;5016777;28;20725;-56
2021/08/22 04:59:24;;;;;;;6.60;5.70;;;;;;;;;;5013321;28;20260;-56
2021/08/22 05:01:49;;;;;;;8.95;6.40;;;;;;;;;;5014366;28;20195;-56
2021/08/22 05:04:14;;;;;;;11.95;8.40;;;;;;;;;;4996079;28;20729;-56
2021/08/22 05:06:40;;;;;;;12.50;8.67;;;;;;;;;;4997669;28;20238;-56
2021/08/22 05:09:05;;;;;;;11.40;9.80;;;;;;;;;;5004364;28;20783;-55
2021/08/22 05:11:30;;;;;;;15.63;12.33;;;;;;;;;;5021997;28;20182;-58
2021/08/22 05:13:55;;;;;;;17.50;14.53;;;;;;;;;;5008128;28;20620;-58
2021/08/22 05:16:20;;;;;;;16.70;12.73;;;;;;;;;;4995213;28;20180;-59
2021/08/22 05:18:45;;;;;;;14.70;12.40;;;;;;;;;;4999083;28;20203;-57
2021/08/22 05:21:11;;;;;;;17.77;14.77;;;;;;;;;;5001709;28;20290;-58
2021/08/22 05:23:36;;;;;;;20.60;17.80;;;;;;;;;;5001659;28;20188;-59
2021/08/22 05:26:01;;;;;;;20.60;16.53;;;;;;;;;;5000508;28;20261;-58
2021/08/22 05:28:26;;;;;;;23.67;18.90;;;;;;;;;;4999232;28;20207;-59
2021/08/22 05:30:51;;;;;;;24.87;18.97;;;;;;;;;;4998674;28;20613;-58
2021/08/22 05:33:17;;;;;;;28.23;20.17;;;;;;;;;;4995830;28;20187;-59
2021/08/22 05:35:42;;;;;;;25.43;20.43;;;;;;;;;;4991888;28;20175;-57
2021/08/22 05:38:07;;;;;;;26.57;21.27;;;;;;;;;;4996082;28;20257;-58
2021/08/22 05:40:32;;;;;;;27.67;20.83;;;;;;;;;;5000717;28;20196;-58
2021/08/22 05:42:58;;;;;;;33.22;21.83;;;;;;;;;;4998661;28;20186;-58
2021/08/22 05:45:23;;;;;;;26.58;19.27;;;;;;;;;;5008938;28;20214;-58
2021/08/22 05:47:48;;;;;;;26.60;20.08;;;;;;;;;;4992829;28;20176;-58
2021/08/22 05:50:13;;;;;;;28.02;21.05;;;;;;;;;;4995030;28;20306;-58
2021/08/22 05:52:38;;;;;;;24.92;18.70;;;;;;;;;;4991767;28;20178;-58
2021/08/22 05:55:08;;;;;;;25.58;19.25;;;;;;;;;;5010429;28;20246;-57
2021/08/22 05:57:34;;;;;;;26.55;20.05;;;;;;;;;;5012862;28;20546;-58
2021/08/22 05:59:59;;;;;;;24.67;19.05;;;;;;;;;;4995521;28;20203;-58
2021/08/22 06:02:24;;;;;;;23.27;18.02;;;;;;;;;;5006097;28;20202;-57
2021/08/22 06:04:49;;;;;;;25.52;17.95;;;;;;;;;;5003808;28;20180;-57
2021/08/22 06:07:21;;;;;;;31.48;20.23;;;;;;;;;;4994390;28;20259;-57
2021/08/22 06:09:50;;;;;;;26.63;18.92;;;;;;;;;;4992803;28;20207;-57
2021/08/22 06:12:15;;;;;;;26.15;18.63;;;;;;;;;;5004855;28;20250;-57
2021/08/22 06:14:41;;;;;;;35.72;18.88;;;;;;;;;;5004383;28;20253;-57
2021/08/22 06:17:06;;;;;;;25.73;18.02;;;;;;;;;;5004514;28;20192;-57
2021/08/22 06:19:31;;;;;;;21.73;16.40;;;;;;;;;;4995484;28;20219;-58
2021/08/22 06:21:56;;;;;;;22.42;17.67;;;;;;;;;;4993051;28;20271;-57
2021/08/22 06:24:21;;;;;;;22.90;16.38;;;;;;;;;;4991473;28;20227;-57
2021/08/22 06:26:47;;;;;;;23.70;17.02;;;;;;;;;;4991570;28;20195;-58
2021/08/22 06:29:12;;;;;;;23.73;17.05;;;;;;;;;;4987997;28;20212;-57
2021/08/22 06:31:37;;;;;;;24.02;18.10;;;;;;;;;;5006775;28;20554;-57
2021/08/22 06:34:06;;;;;;;23.17;17.20;;;;;;;;;;4995660;28;20259;-58
2021/08/22 06:36:31;;;;;;;23.23;18.20;;;;;;;;;;4994775;28;20190;-57
2021/08/22 06:38:57;;;;;;;21.58;16.98;;;;;;;;;;4991877;28;20171;-57
2021/08/22 06:41:22;;;;;;;27.88;17.52;;;;;;;;;;5011297;28;20563;-57
2021/08/22 06:43:47;;;;;;;29.10;17.45;;;;;;;;;;5000942;28;20218;-57
2021/08/22 06:46:12;;;;;;;23.92;16.83;;;;;;;;;;5000555;28;20678;-57
2021/08/22 06:48:37;;;;;;;22.60;16.58;;;;;;;;;;5000852;28;20276;-57
2021/08/22 06:51:02;;;;;;;23.38;16.90;;;;;;;;;;4995509;28;20301;-57
2021/08/22 06:53:28;;;;;;;22.83;17.02;;;;;;;;;;4996748;28;20182;-57
2021/08/22 06:55:53;;;;;;;26.15;18.20;;;;;;;;;;5013091;28;20187;-57
2021/08/22 06:58:18;;;;;;;23.88;17.45;;;;;;;;;;5002659;28;20190;-56
2021/08/22 07:00:43;;;;;;;28.50;17.70;;;;;;;;;;5016944;28;20791;-58
2021/08/22 07:03:09;;;;;;;21.70;16.73;;;;;;;;;;5003122;28;20199;-56
2021/08/22 07:05:34;;;;;;;23.65;16.80;;;;;;;;;;4994136;28;20235;-57
2021/08/22 07:07:59;;;;;;;22.02;17.65;;;;;;;;;;4998869;28;20200;-57
2021/08/22 07:10:24;;;;;;;20.98;16.25;;;;;;;;;;4989064;28;20203;-58
2021/08/22 07:12:49;;;;;;;19.63;16.77;;;;;;;;;;5021313;28;20678;-57
2021/08/22 07:15:15;;;;;;;20.30;15.95;;;;;;;;;;5013437;28;20175;-56
2021/08/22 07:17:40;;;;;;;20.02;16.35;;;;;;;;;;5007757;28;20179;-57
2021/08/22 07:20:06;;;;;;;21.98;15.70;;;;;;;;;;4995777;28;20238;-58
2021/08/22 07:22:31;;;;;;;23.45;17.60;;;;;;;;;;4999248;28;20183;-56
2021/08/22 07:24:58;;;;;;;21.73;16.00;;;;;;;;;;4999777;28;20199;-56
2021/08/22 07:27:23;;;;;;;21.95;16.08;;;;;;;;;;4999722;28;20188;-56
2021/08/22 07:29:49;;;;;;;20.63;15.93;;;;;;;;;;4999850;28;20600;-55
2021/08/22 07:32:14;;;;;;;19.80;16.02;;;;;;;;;;5001842;28;20617;-56
2021/08/22 07:34:40;;;;;;;23.08;16.75;;;;;;;;;;4993961;28;20183;-57
2021/08/22 07:37:05;;;;;;;20.55;16.45;;;;;;;;;;5007333;28;20267;-56
2021/08/22 07:39:30;;;;;;;22.02;16.63;;;;;;;;;;4998042;28;20199;-57
2021/08/22 07:41:55;;;;;;;20.55;15.68;;;;;;;;;;5007532;28;20542;-57
2021/08/22 07:44:21;;;;;;;19.38;16.20;;;;;;;;;;5017152;28;20215;-58
2021/08/22 07:46:46;;;;;;;15.95;14.25;;;;;;;;;;4990988;28;20191;-58
2021/08/22 07:49:11;;;;;;;16.77;14.48;;;;;;;;;;4994464;28;20192;-57
2021/08/22 07:51:36;;;;;;;17.20;13.97;;;;;;;;;;4998872;28;20636;-57
2021/08/22 07:54:02;;;;;;;16.92;14.27;;;;;;;;;;5002051;28;20414;-57
2021/08/22 07:56:27;;;;;;;16.23;13.93;;;;;;;;;;5006309;28;20756;-58
2021/08/22 07:58:52;;;;;;;19.23;14.45;;;;;;;;;;5006260;28;20887;-58
2021/08/22 08:01:17;;;;;;;17.10;13.93;;;;;;;;;;4998012;28;20204;-57
2021/08/22 08:03:42;;;;;;;16.27;13.82;;;;;;;;;;5004251;28;20298;-56
2021/08/22 08:06:08;;;;;;;16.83;13.73;;;;;;;;;;5010590;28;20181;-57
2021/08/22 08:08:35;;;;;;;13.77;12.20;;;;;;;;;;5003742;28;20542;-56
2021/08/22 08:11:01;;;;;;;14.88;12.60;;;;;;;;;;5005180;28;20232;-57
2021/08/22 08:13:26;;;;;;;15.90;13.10;;;;;;;;;;5009361;28;20191;-57
2021/08/22 08:15:52;;;;;;;15.40;12.32;;;;;;;;;;5000663;28;20598;-57
2021/08/22 08:18:17;;;;;;;14.18;12.40;;;;;;;;;;5004305;28;20179;-57
2021/08/22 08:20:42;;;;;;;16.00;12.68;;;;;;;;;;4995362;28;20204;-57
2021/08/22 08:23:07;;;;;;;13.85;12.45;;;;;;;;;;4999954;28;20198;-57
2021/08/22 08:25:32;;;;;;;16.15;12.45;;;;;;;;;;4996026;28;20188;-56
2021/08/22 08:27:57;;;;;;;20.02;12.63;;;;;;;;;;4993236;28;20203;-58
2021/08/22 08:30:23;;;;;;;21.55;13.90;;;;;;;;;;4994051;28;20250;-57
2021/08/22 08:32:48;;;;;;;19.95;12.45;;;;;;;;;;4998044;28;20250;-56
2021/08/22 08:35:13;;;;;;;13.85;12.05;;;;;;;;;;4993021;28;20226;-57
2021/08/22 08:37:39;;;;;;;15.07;12.07;;;;;;;;;;5012123;28;21030;-57
2021/08/22 08:40:09;;;;;;;17.33;12.80;;;;;;;;;;4991794;28;20590;-57
2021/08/22 08:42:36;;;;;;;19.35;13.60;;;;;;;;;;4994125;28;20191;-57
2021/08/22 08:45:01;;;;;;;19.17;13.02;;;;;;;;;;4996409;28;20546;-56
2021/08/22 08:47:27;;;;;;;17.05;13.50;;;;;;;;;;4994148;28;20184;-56
2021/08/22 08:49:54;;;;;;;15.73;12.25;;;;;;;;;;4998321;28;20238;-58
2021/08/22 08:52:34;;;;;;;15.85;12.90;;;;;;;;;;4999172;28;20208;-57
2021/08/22 08:55:02;;;;;;;14.88;12.45;;;;;;;;;;5000374;28;20179;-58
2021/08/22 08:57:27;;;;;;;12.85;11.20;;;;;;;;;;5014595;28;20594;-60
2021/08/22 08:59:52;;;;;;;15.13;12.43;;;;;;;;;;5017107;28;20211;-59
2021/08/22 09:02:17;;;;;;;13.77;11.90;;;;;;;;;;5010134;28;20213;-59
2021/08/22 09:05:03;;;;;;;14.30;11.40;;;;;;;;;;5011272;28;20472;-60
2021/08/22 09:07:47;;;;;;;13.35;10.10;;;;;;;;;;5014618;28;20830;-60
2021/08/22 09:10:31;;;;;;;9.98;8.98;;;;;;;;;;4997538;28;20207;-59
2021/08/22 09:13:15;;;;;;;10.45;9.45;;;;;;;;;;5029433;28;20647;-59
2021/08/22 09:15:59;;;;;;;10.77;9.68;;;;;;;;;;5001859;28;20186;-58
2021/08/22 09:18:43;;;;;;;11.27;10.07;;;;;;;;;;5018111;28;20186;-58
2021/08/22 09:21:08;;;;;;;16.48;10.82;;;;;;;;;;4991428;28;20191;-58
2021/08/22 09:23:43;;;;;;;11.75;10.43;;;;;;;;;;4987785;28;20807;-57
2021/08/22 09:26:30;;;;;;;9.80;8.80;;;;;;;;;;4999641;28;20435;-59
2021/08/22 09:29:14;;;;;;;11.50;9.68;;;;;;;;;;5012031;28;20215;-58
2021/08/22 09:31:58;;;;;;;9.77;8.77;;;;;;;;;;4996380;28;20230;-65
2021/08/22 09:34:42;;;;;;;14.23;10.85;;;;;;;;;;5013129;28;20192;-64
2021/08/22 09:37:08;;;;;;;11.77;9.40;;;;;;;;;;4993418;28;20188;-60
2021/08/22 09:39:51;;;;;;;10.77;9.68;;;;;;;;;;4991072;28;20203;-60
2021/08/22 09:42:49;;;;;;;10.10;9.05;;;;;;;;;;4993691;28;20184;-60
2021/08/22 09:45:33;;;;;;;9.88;8.88;;;;;;;;;;5003535;28;20210;-62
2021/08/22 09:48:01;;;;;;;9.50;8.57;;;;;;;;;;4994814;28;20242;-63
2021/08/22 09:50:45;;;;;;;9.60;8.60;;;;;;;;;;4993900;28;20242;-58
2021/08/22 09:53:10;;;;;;;8.43;7.28;;;;;;;;;;4993036;28;20645;-59
2021/08/22 09:55:35;;;;;;;8.77;6.82;;;;;;;;;;4992584;28;20251;-59
2021/08/22 09:58:09;;;;;;;8.13;7.43;;;;;;;;;;4995839;28;20930;-59
2021/08/22 10:00:50;;;;;;;12.60;7.53;;;;;;;;;;4971827;28;20435;-59
2021/08/22 10:03:21;;;;;;;8.45;6.68;;;;;;;;;;4992347;28;21964;-58
2021/08/22 10:05:58;;;;;;;12.57;6.57;;;;;;;;;;4992636;28;20192;-57
2021/08/22 10:08:29;;;;;;;6.40;5.82;;;;;;;;;;4992743;28;20203;-58
2021/08/22 10:10:58;;;;;;;8.52;7.28;;;;;;;;;;4992586;28;20226;-59
2021/08/22 10:13:24;;;;;;;6.90;6.00;;;;;;;;;;4996115;28;20180;-59
2021/08/22 10:15:50;;;;;;;6.90;6.22;;;;;;;;;;5004194;28;20176;-60
2021/08/22 10:18:25;;;;;;;8.25;6.30;;;;;;;;;;4993619;28;20184;-60
2021/08/22 10:20:51;;;;;;;7.00;6.13;;;;;;;;;;4993199;28;20210;-58
2021/08/22 10:23:31;;;;;;;5.85;5.32;;;;;;;;;;4993632;28;20524;-58
2021/08/22 10:25:57;;;;;;;5.97;5.38;;;;;;;;;;4993504;28;20191;-58
2021/08/22 10:28:40;;;;;;;7.28;6.22;;;;;;;;;;4995859;28;20188;-58
2021/08/22 10:31:06;;;;;;;6.68;4.95;;;;;;;;;;4995211;28;20676;-58
2021/08/22 10:33:31;;;;;;;5.83;4.60;;;;;;;;;;4995036;28;20271;-58
2021/08/22 10:36:16;;;;;;;7.33;6.13;;;;;;;;;;4991126;28;20435;-58
2021/08/22 10:38:43;;;;;;;7.30;5.90;;;;;;;;;;4991323;28;20459;-57
2021/08/22 10:41:28;;;;;;;6.70;5.82;;;;;;;;;;4992182;28;20204;-59
2021/08/22 10:43:54;;;;;;;7.13;6.43;;;;;;;;;;4996162;28;20179;-58
2021/08/22 10:46:39;;;;;;;7.07;6.38;;;;;;;;;;4989980;28;20180;-57
2021/08/22 10:49:04;;;;;;;7.00;6.30;;;;;;;;;;5009443;28;20206;-58
2021/08/22 10:51:29;;;;;;;7.57;6.88;;;;;;;;;;4991548;28;20185;-58
2021/08/22 10:54:14;;;;;;;10.18;7.93;;;;;;;;;;4990430;28;20192;-58
2021/08/22 10:56:40;;;;;;;8.20;6.65;;;;;;;;;;4992453;28;20709;-59
2021/08/22 10:59:06;;;;;;;7.70;6.78;;;;;;;;;;4993112;28;20184;-58
2021/08/22 11:01:32;;;;;;;10.13;9.23;;;;;;;;;;4988872;28;20196;-58
2021/08/22 11:04:01;;;;;;;8.82;7.97;;;;;;;;;;4992001;28;20660;-58
2021/08/22 11:06:26;;;;;;;9.60;8.13;;;;;;;;;;4994553;28;20184;-58
2021/08/22 11:08:52;;;;;;;8.80;7.90;;;;;;;;;;4989136;28;20199;-57
2021/08/22 11:11:17;;;;;;;9.75;8.43;;;;;;;;;;4987606;28;20699;-57
2021/08/22 11:13:51;;;;;;;9.40;8.23;;;;;;;;;;5007665;28;20167;-56
2021/08/22 11:16:16;;;;;;;8.25;7.45;;;;;;;;;;5002626;28;20483;-57
2021/08/22 11:18:45;;;;;;;8.80;7.80;;;;;;;;;;4989813;28;20662;-58
2021/08/22 11:21:10;;;;;;;8.60;7.63;;;;;;;;;;4991883;28;20462;-57
2021/08/22 11:23:35;;;;;;;8.93;8.00;;;;;;;;;;4988188;28;20184;-56
2021/08/22 11:26:10;;;;;;;10.10;8.02;;;;;;;;;;4990097;28;20246;-58
2021/08/22 11:28:36;;;;;;;10.32;8.32;;;;;;;;;;4996031;28;20202;-57
2021/08/22 11:31:09;;;;;;;9.68;8.77;;;;;;;;;;4992535;28;20218;-59
2021/08/22 11:33:34;;;;;;;10.73;8.55;;;;;;;;;;4993429;28;20226;-59
2021/08/22 11:36:02;;;;;;;10.40;9.32;;;;;;;;;;4995417;28;20192;-57
2021/08/22 11:38:28;;;;;;;10.27;9.27;;;;;;;;;;4996735;28;20199;-56
2021/08/22 11:40:59;;;;;;;9.82;8.65;;;;;;;;;;4994670;28;20204;-57
2021/08/22 11:43:24;;;;;;;9.93;9.00;;;;;;;;;;5007228;28;20183;-57
2021/08/22 11:45:49;;;;;;;10.30;9.30;;;;;;;;;;5011126;28;20186;-57
2021/08/22 11:48:16;;;;;;;9.80;8.57;;;;;;;;;;5002624;28;20210;-57
2021/08/22 11:50:41;;;;;;;9.98;8.98;;;;;;;;;;5017383;28;20455;-56
2021/08/22 11:53:08;;;;;;;10.20;9.25;;;;;;;;;;4999364;28;20192;-57
2021/08/22 11:55:34;;;;;;;9.80;8.80;;;;;;;;;;5001517;28;20172;-56
2021/08/22 11:58:16;;;;;;;10.30;9.32;;;;;;;;;;4999343;28;20184;-56
2021/08/22 12:00:43;;;;;;;9.00;8.07;;;;;;;;;;5016429;28;20241;-56
2021/08/22 12:03:12;;;;;;;10.13;9.23;;;;;;;;;;5010095;28;20206;-57
2021/08/22 12:05:50;;;;;;;9.57;8.60;;;;;;;;;;5015094;28;20598;-56
2021/08/22 12:08:16;;;;;;;8.98;8.07;;;;;;;;;;4999032;28;20211;-57
2021/08/22 12:10:42;;;;;;;8.90;8.10;;;;;;;;;;5000434;28;20254;-57
2021/08/22 12:13:14;;;;;;;8.82;8.02;;;;;;;;;;4998320;28;20187;-57
2021/08/22 12:15:40;;;;;;;9.32;8.07;;;;;;;;;;5015512;28;20179;-57
2021/08/22 12:18:31;;;;;;;10.80;8.07;;;;;;;;;;4998614;28;20195;-57
2021/08/22 12:21:06;;;;;;;8.90;8.00;;;;;;;;;;5018428;28;20207;-57
2021/08/22 12:23:32;;;;;;;8.48;7.72;;;;;;;;;;4995646;28;20188;-57
2021/08/22 12:26:16;;;;;;;8.57;7.75;;;;;;;;;;4992847;28;20180;-57
2021/08/22 12:28:42;;;;;;;8.52;7.22;;;;;;;;;;5000467;28;20195;-57
2021/08/22 12:31:08;;;;;;;8.98;8.18;;;;;;;;;;5019227;28;20231;-57
2021/08/22 12:33:35;;;;;;;9.27;7.70;;;;;;;;;;5002632;28;20183;-57
2021/08/22 12:36:04;;;;;;;8.18;7.47;;;;;;;;;;4997927;28;20575;-57
2021/08/22 12:38:53;;;;;;;8.25;7.55;;;;;;;;;;5006965;28;20211;-57
2021/08/22 12:41:21;;;;;;;9.15;8.25;;;;;;;;;;5001116;28;20551;-57
2021/08/22 12:43:46;;;;;;;8.48;7.68;;;;;;;;;;5010482;28;20179;-56
2021/08/22 12:46:11;;;;;;;7.78;7.07;;;;;;;;;;5028840;28;20556;-56
2021/08/22 12:48:36;;;;;;;8.83;8.03;;;;;;;;;;5010210;28;20577;-56
2021/08/22 12:51:07;;;;;;;8.20;7.50;;;;;;;;;;5017938;28;20452;-57
2021/08/22 12:53:32;;;;;;;7.40;6.70;;;;;;;;;;5001583;28;20438;-56
2021/08/22 12:55:57;;;;;;;8.90;7.90;;;;;;;;;;5008375;28;20218;-56
2021/08/22 12:58:22;;;;;;;7.32;6.72;;;;;;;;;;5009201;28;20444;-57
2021/08/22 13:00:47;;;;;;;8.30;7.50;;;;;;;;;;5012494;28;20882;-56
2021/08/22 13:03:12;;;;;;;8.57;7.87;;;;;;;;;;5003563;28;20209;-56
2021/08/22 13:05:38;;;;;;;8.27;7.60;;;;;;;;;;5015455;28;20434;-56
2021/08/22 13:08:03;;;;;;;7.83;7.13;;;;;;;;;;5000921;28;20450;-56
2021/08/22 13:10:28;;;;;;;7.38;6.78;;;;;;;;;;4995088;28;20443;-56
2021/08/22 13:12:54;;;;;;;7.70;6.97;;;;;;;;;;5009721;28;20222;-56
2021/08/22 13:15:19;;;;;;;9.75;6.80;;;;;;;;;;5025095;28;20163;-57
2021/08/22 13:17:45;;;;;;;9.45;7.50;;;;;;;;;;5009041;28;20198;-56
2021/08/22 13:20:10;;;;;;;9.40;8.07;;;;;;;;;;5015362;28;20201;-57
2021/08/22 13:22:35;;;;;;;12.25;9.20;;;;;;;;;;5000337;28;20171;-57
2021/08/22 13:25:00;;;;;;;11.55;9.02;;;;;;;;;;4998913;28;20184;-56
2021/08/22 13:27:25;;;;;;;14.30;10.50;;;;;;;;;;5008191;28;20249;-56
2021/08/22 13:29:51;;;;;;;10.27;9.27;;;;;;;;;;5014658;28;20478;-56
2021/08/22 13:32:16;;;;;;;10.73;9.37;;;;;;;;;;5028513;28;20175;-57
2021/08/22 13:34:41;;;;;;;10.03;8.90;;;;;;;;;;5016902;28;21092;-56
2021/08/22 13:37:06;;;;;;;8.90;8.10;;;;;;;;;;5002887;28;20427;-56
2021/08/22 13:39:31;;;;;;;9.30;8.50;;;;;;;;;;4990736;28;20204;-56
2021/08/22 13:41:56;;;;;;;9.30;8.40;;;;;;;;;;4992305;28;20507;-56
2021/08/22 13:44:22;;;;;;;10.07;9.17;;;;;;;;;;5013925;28;20512;-56
2021/08/22 13:46:47;;;;;;;11.65;9.43;;;;;;;;;;5010299;28;20419;-56
2021/08/22 13:49:12;;;;;;;9.27;8.47;;;;;;;;;;5012402;28;20672;-57
2021/08/22 13:51:37;;;;;;;9.32;8.52;;;;;;;;;;5008806;28;20427;-56
2021/08/22 13:54:03;;;;;;;9.13;8.32;;;;;;;;;;5000087;28;20184;-56
2021/08/22 13:56:28;;;;;;;9.45;8.60;;;;;;;;;;4992225;28;20168;-56
2021/08/22 13:58:53;;;;;;;8.77;7.88;;;;;;;;;;5005194;28;20710;-56
2021/08/22 14:01:18;;;;;;;8.75;7.95;;;;;;;;;;4998175;28;20587;-56
2021/08/22 14:03:43;;;;;;;8.43;7.72;;;;;;;;;;4997236;28;20179;-57
2021/08/22 14:06:09;;;;;;;8.80;8.00;;;;;;;;;;5021329;28;20183;-56
2021/08/22 14:08:34;;;;;;;8.60;7.80;;;;;;;;;;5004968;28;20450;-57
2021/08/22 14:10:59;;;;;;;7.43;6.82;;;;;;;;;;4991409;28;20200;-56
2021/08/22 14:13:24;;;;;;;7.68;6.97;;;;;;;;;;4990038;28;20221;-56
2021/08/22 14:15:49;;;;;;;7.25;6.65;;;;;;;;;;5015936;28;20182;-56
2021/08/22 14:18:15;;;;;;;7.35;6.63;;;;;;;;;;5001980;28;20283;-56
2021/08/22 14:20:40;;;;;;;6.55;5.95;;;;;;;;;;4993798;28;20683;-55
2021/08/22 14:23:07;;;;;;;6.65;6.05;;;;;;;;;;4993909;28;20187;-55
2021/08/22 14:25:32;;;;;;;6.10;5.60;;;;;;;;;;5001597;28;20201;-55
2021/08/22 14:27:57;;;;;;;6.77;6.17;;;;;;;;;;5001045;28;20726;-55
2021/08/22 14:30:22;;;;;;;6.40;5.90;;;;;;;;;;5006211;28;20524;-55
2021/08/22 14:32:47;;;;;;;6.50;5.90;;;;;;;;;;5012607;28;20591;-55
2021/08/22 14:35:13;;;;;;;6.32;5.22;;;;;;;;;;4996794;28;20191;-56